Time;durP1;ratioP1;P1;durP2;ratioP2;P2;SDS_P1;SDS_P2;PMS_P1;PMS_P2;Temp;Humidity;BMP_temperature;BMP_pressure;BME280_temperature;BME280_humidity;BME280_pressure;Samples;Min_cycle;Max_cycle;Signal;HPM_P1;HPM_P2
2022/02/24 00:00:56;;;;;;;29.85;10.05;;;;;;;;;;4970338;28;20364;-63
2022/02/24 00:03:23;;;;;;;35.15;10.60;;;;;;;;;;4969125;28;20405;-62
2022/02/24 00:05:48;;;;;;;31.67;9.77;;;;;;;;;;4968780;28;20392;-62
2022/02/24 00:08:14;;;;;;;27.27;8.98;;;;;;;;;;4972164;28;20045;-62
2022/02/24 00:10:39;;;;;;;25.20;8.95;;;;;;;;;;4972887;28;20069;-63
2022/02/24 00:13:04;;;;;;;29.75;10.20;;;;;;;;;;4972733;28;20437;-62
2022/02/24 00:15:30;;;;;;;24.88;8.43;;;;;;;;;;4972349;28;20376;-62
2022/02/24 00:17:55;;;;;;;26.02;8.68;;;;;;;;;;4972541;28;20128;-63
2022/02/24 00:20:20;;;;;;;30.13;9.52;;;;;;;;;;4972395;28;20452;-62
2022/02/24 00:22:46;;;;;;;33.58;10.88;;;;;;;;;;4972697;28;20041;-62
2022/02/24 00:25:11;;;;;;;27.95;9.60;;;;;;;;;;4972205;28;20394;-62
2022/02/24 00:27:37;;;;;;;24.80;8.68;;;;;;;;;;4972345;28;20336;-64
2022/02/24 00:30:04;;;;;;;30.67;10.38;;;;;;;;;;4972857;28;20407;-62
2022/02/24 00:32:30;;;;;;;32.55;11.18;;;;;;;;;;4971810;28;20114;-62
2022/02/24 00:34:55;;;;;;;29.35;10.50;;;;;;;;;;4973574;28;20512;-62
2022/02/24 00:37:20;;;;;;;30.70;9.10;;;;;;;;;;4972265;28;20492;-63
2022/02/24 00:39:46;;;;;;;33.10;11.30;;;;;;;;;;4971953;28;20048;-63
2022/02/24 00:42:11;;;;;;;31.92;10.05;;;;;;;;;;4971799;28;20528;-62
2022/02/24 00:44:37;;;;;;;25.60;10.50;;;;;;;;;;4972032;28;20440;-62
2022/02/24 00:47:02;;;;;;;23.70;9.73;;;;;;;;;;4973073;28;20408;-62
2022/02/24 00:49:27;;;;;;;27.65;9.82;;;;;;;;;;4973239;28;20587;-63
2022/02/24 00:51:53;;;;;;;23.55;9.70;;;;;;;;;;4970957;28;20460;-62
2022/02/24 00:54:18;;;;;;;27.77;11.00;;;;;;;;;;4972348;28;20428;-62
2022/02/24 00:56:43;;;;;;;24.13;8.52;;;;;;;;;;4971735;28;20466;-62
2022/02/24 00:59:09;;;;;;;30.90;10.07;;;;;;;;;;4972635;28;20049;-62
2022/02/24 01:01:34;;;;;;;26.40;11.02;;;;;;;;;;4981214;28;20440;-63
2022/02/24 01:03:59;;;;;;;35.13;10.23;;;;;;;;;;4973438;28;20362;-62
2022/02/24 01:06:25;;;;;;;31.63;10.50;;;;;;;;;;4972066;28;20528;-62
2022/02/24 01:08:50;;;;;;;27.98;11.02;;;;;;;;;;4971376;28;20449;-62
2022/02/24 01:11:15;;;;;;;24.92;10.00;;;;;;;;;;4971418;28;20437;-63
2022/02/24 01:13:41;;;;;;;34.00;10.90;;;;;;;;;;4971123;28;20345;-62
2022/02/24 01:16:06;;;;;;;32.33;11.32;;;;;;;;;;4971457;28;20433;-62
2022/02/24 01:18:32;;;;;;;35.88;10.07;;;;;;;;;;4970268;28;20026;-62
2022/02/24 01:20:57;;;;;;;24.63;10.07;;;;;;;;;;4972290;28;20413;-63
2022/02/24 01:23:23;;;;;;;26.58;10.25;;;;;;;;;;4971808;28;20444;-62
2022/02/24 01:25:48;;;;;;;29.77;9.65;;;;;;;;;;4971404;28;20471;-62
2022/02/24 01:28:14;;;;;;;29.88;10.25;;;;;;;;;;4971574;28;20383;-62
2022/02/24 01:30:39;;;;;;;37.00;10.88;;;;;;;;;;4971819;28;20345;-62
2022/02/24 01:33:04;;;;;;;26.13;9.85;;;;;;;;;;4970924;28;20464;-63
2022/02/24 01:35:30;;;;;;;31.75;10.95;;;;;;;;;;4970867;28;20383;-62
2022/02/24 01:37:55;;;;;;;28.33;10.07;;;;;;;;;;4970782;28;20034;-62
2022/02/24 01:40:21;;;;;;;41.03;11.73;;;;;;;;;;4970771;28;20366;-63
2022/02/24 01:42:46;;;;;;;34.42;11.38;;;;;;;;;;4970824;28;20177;-62
2022/02/24 01:45:12;;;;;;;27.77;10.90;;;;;;;;;;4970793;28;20414;-62
2022/02/24 01:47:38;;;;;;;26.92;9.85;;;;;;;;;;4971044;28;20510;-62
2022/02/24 01:50:05;;;;;;;30.35;10.43;;;;;;;;;;4971257;28;20420;-62
2022/02/24 01:52:30;;;;;;;33.53;10.35;;;;;;;;;;4970373;28;20063;-62
2022/02/24 01:54:56;;;;;;;29.13;10.32;;;;;;;;;;4968908;28;20029;-62
2022/02/24 01:57:22;;;;;;;30.70;10.93;;;;;;;;;;4970921;28;20076;-61
2022/02/24 01:59:48;;;;;;;27.58;11.18;;;;;;;;;;4971609;28;20056;-61
2022/02/24 02:02:14;;;;;;;34.63;11.57;;;;;;;;;;4970465;28;20037;-62
2022/02/24 02:04:40;;;;;;;31.13;11.07;;;;;;;;;;4971367;28;20387;-62
2022/02/24 02:07:05;;;;;;;30.50;10.02;;;;;;;;;;4970114;28;20451;-62
2022/02/24 02:09:32;;;;;;;29.58;9.60;;;;;;;;;;4969027;28;20532;-61
2022/02/24 02:11:57;;;;;;;31.80;11.75;;;;;;;;;;4970087;28;20516;-62
2022/02/24 02:14:22;;;;;;;28.73;11.90;;;;;;;;;;4970663;28;20420;-62
2022/02/24 02:16:51;;;;;;;27.98;10.25;;;;;;;;;;4970062;28;20448;-62
2022/02/24 02:19:18;;;;;;;30.90;11.57;;;;;;;;;;4970393;28;20454;-62
2022/02/24 02:21:44;;;;;;;27.98;9.70;;;;;;;;;;4970560;28;20091;-62
2022/02/24 02:24:10;;;;;;;28.95;9.75;;;;;;;;;;4971128;28;20384;-61
2022/02/24 02:26:36;;;;;;;31.42;11.02;;;;;;;;;;4970159;28;20431;-61
2022/02/24 02:29:04;;;;;;;32.47;10.75;;;;;;;;;;4969979;28;20318;-62
2022/02/24 02:31:29;;;;;;;32.72;12.10;;;;;;;;;;4969810;28;20034;-62
2022/02/24 02:34:07;;;;;;;29.48;11.35;;;;;;;;;;4970204;28;20044;-62
2022/02/24 02:36:33;;;;;;;32.88;11.40;;;;;;;;;;4969803;28;20088;-62
2022/02/24 02:38:59;;;;;;;30.58;10.88;;;;;;;;;;4970596;28;20510;-62
2022/02/24 02:41:31;;;;;;;27.60;11.27;;;;;;;;;;4969646;28;20095;-61
2022/02/24 02:43:57;;;;;;;25.45;10.00;;;;;;;;;;4969620;28;20333;-63
2022/02/24 02:46:23;;;;;;;32.70;10.70;;;;;;;;;;4969945;28;20367;-62
2022/02/24 02:48:48;;;;;;;28.45;10.30;;;;;;;;;;4969509;28;20487;-62
2022/02/24 02:51:14;;;;;;;28.65;11.32;;;;;;;;;;4970196;28;20441;-62
2022/02/24 02:53:39;;;;;;;35.00;11.98;;;;;;;;;;4969935;28;20325;-62
2022/02/24 02:56:04;;;;;;;29.42;11.68;;;;;;;;;;4969655;28;20025;-62
2022/02/24 02:58:30;;;;;;;30.17;11.43;;;;;;;;;;4970231;28;20505;-62
2022/02/24 03:00:56;;;;;;;36.42;11.88;;;;;;;;;;4969811;28;20437;-62
2022/02/24 03:03:24;;;;;;;28.88;10.85;;;;;;;;;;4969611;28;20338;-62
2022/02/24 03:05:52;;;;;;;27.77;10.50;;;;;;;;;;4969672;28;20337;-62
2022/02/24 03:08:18;;;;;;;29.02;12.45;;;;;;;;;;4969034;28;20694;-62
2022/02/24 03:10:44;;;;;;;24.83;11.00;;;;;;;;;;4969318;28;20299;-62
2022/02/24 03:13:09;;;;;;;28.45;11.23;;;;;;;;;;4969685;28;20420;-62
2022/02/24 03:15:34;;;;;;;29.30;10.27;;;;;;;;;;4968986;28;20095;-62
2022/02/24 03:18:00;;;;;;;31.45;11.05;;;;;;;;;;4969576;28;20337;-62
2022/02/24 03:20:30;;;;;;;30.52;10.98;;;;;;;;;;4968886;28;20355;-64
2022/02/24 03:23:00;;;;;;;26.67;11.40;;;;;;;;;;4969803;28;20491;-62
2022/02/24 03:25:26;;;;;;;28.83;11.23;;;;;;;;;;4968959;28;20417;-62
2022/02/24 03:27:52;;;;;;;27.25;9.95;;;;;;;;;;4969188;28;20465;-62
2022/02/24 03:30:18;;;;;;;33.50;11.75;;;;;;;;;;4970106;28;20527;-62
2022/02/24 03:32:43;;;;;;;27.15;10.32;;;;;;;;;;4969646;28;20048;-61
2022/02/24 03:35:09;;;;;;;29.27;10.93;;;;;;;;;;4969010;28;20445;-62
2022/02/24 03:37:35;;;;;;;26.15;10.30;;;;;;;;;;4968833;28;20345;-62
2022/02/24 03:40:01;;;;;;;29.60;10.45;;;;;;;;;;4969080;28;20030;-62
2022/02/24 03:42:28;;;;;;;33.17;12.48;;;;;;;;;;4971267;28;20471;-62
2022/02/24 03:44:54;;;;;;;24.38;9.68;;;;;;;;;;4973546;28;20379;-62
2022/02/24 03:47:20;;;;;;;26.50;11.57;;;;;;;;;;4972956;28;20391;-62
2022/02/24 03:49:45;;;;;;;28.25;11.23;;;;;;;;;;4973302;28;20149;-62
2022/02/24 03:52:11;;;;;;;32.58;10.32;;;;;;;;;;4971294;28;20441;-62
2022/02/24 03:54:36;;;;;;;34.83;13.88;;;;;;;;;;4973595;28;20026;-62
2022/02/24 03:57:01;;;;;;;31.52;11.23;;;;;;;;;;4972876;28;20316;-62
2022/02/24 03:59:27;;;;;;;30.58;12.23;;;;;;;;;;4973005;28;20431;-62
2022/02/24 04:01:52;;;;;;;25.75;9.93;;;;;;;;;;4972697;28;20029;-63
2022/02/24 04:04:17;;;;;;;26.95;10.38;;;;;;;;;;4973079;28;20432;-62
2022/02/24 04:06:43;;;;;;;28.52;12.90;;;;;;;;;;4972597;28;20372;-62
2022/02/24 04:09:08;;;;;;;31.33;12.25;;;;;;;;;;4972654;28;20395;-62
2022/02/24 04:11:33;;;;;;;27.27;11.77;;;;;;;;;;4972643;28;20428;-62
2022/02/24 04:13:59;;;;;;;31.48;11.10;;;;;;;;;;4972704;28;20025;-61
2022/02/24 04:16:24;;;;;;;32.28;11.30;;;;;;;;;;4973701;28;20394;-62
2022/02/24 04:18:49;;;;;;;33.10;11.10;;;;;;;;;;4972378;28;20370;-62
2022/02/24 04:21:15;;;;;;;29.70;11.60;;;;;;;;;;4972178;28;20052;-61
2022/02/24 04:23:40;;;;;;;33.20;11.63;;;;;;;;;;4972133;28;20105;-62
2022/02/24 04:26:05;;;;;;;28.02;11.35;;;;;;;;;;4971675;28;20048;-61
2022/02/24 04:28:31;;;;;;;29.35;11.65;;;;;;;;;;4972463;28;20516;-62
2022/02/24 04:30:56;;;;;;;31.15;11.43;;;;;;;;;;4972306;28;20417;-63
2022/02/24 04:33:21;;;;;;;29.02;11.13;;;;;;;;;;4972123;28;20338;-62
2022/02/24 04:38:39;;;;;;;30.73;11.02;;;;;;;;;;5065982;27;20465;-61
2022/02/24 04:41:04;;;;;;;31.33;11.23;;;;;;;;;;5047193;28;20473;-60
2022/02/24 04:43:30;;;;;;;30.60;11.75;;;;;;;;;;5046290;28;20339;-60
2022/02/24 04:45:55;;;;;;;34.17;13.05;;;;;;;;;;5046092;28;20300;-60
2022/02/24 04:48:21;;;;;;;38.08;12.55;;;;;;;;;;5046230;28;20485;-61
2022/02/24 04:50:47;;;;;;;35.33;13.02;;;;;;;;;;5045679;28;20465;-60
2022/02/24 04:53:12;;;;;;;32.08;13.23;;;;;;;;;;5045687;28;20296;-60
2022/02/24 04:55:38;;;;;;;30.05;12.02;;;;;;;;;;5046648;28;20355;-60
2022/02/24 04:58:03;;;;;;;30.08;12.05;;;;;;;;;;5045528;28;20403;-60
2022/02/24 05:00:28;;;;;;;34.03;13.48;;;;;;;;;;5046123;28;20496;-60
2022/02/24 05:02:54;;;;;;;35.08;12.70;;;;;;;;;;5046068;28;20103;-61
2022/02/24 05:05:19;;;;;;;33.17;13.50;;;;;;;;;;5045396;28;20381;-61
2022/02/24 05:07:44;;;;;;;31.73;12.15;;;;;;;;;;5045792;28;20538;-62
2022/02/24 05:10:10;;;;;;;28.20;12.80;;;;;;;;;;5045535;28;20402;-61
2022/02/24 05:12:35;;;;;;;36.25;13.70;;;;;;;;;;5045842;28;20374;-61
2022/02/24 05:15:01;;;;;;;36.40;13.45;;;;;;;;;;5045318;28;20354;-61
2022/02/24 05:17:26;;;;;;;38.53;14.13;;;;;;;;;;5044943;28;20327;-61
2022/02/24 05:19:51;;;;;;;36.88;12.95;;;;;;;;;;5046046;28;20490;-61
2022/02/24 05:22:17;;;;;;;35.75;14.18;;;;;;;;;;5045428;28;20427;-61
2022/02/24 05:24:42;;;;;;;34.35;14.82;;;;;;;;;;5044793;28;20458;-61
2022/02/24 05:27:08;;;;;;;42.15;15.30;;;;;;;;;;5046987;28;20397;-61
2022/02/24 05:29:33;;;;;;;40.70;14.02;;;;;;;;;;5045471;28;20111;-61
2022/02/24 05:31:58;;;;;;;35.80;12.80;;;;;;;;;;5045603;28;20024;-61
2022/02/24 05:34:24;;;;;;;34.88;12.60;;;;;;;;;;5045546;28;20032;-61
2022/02/24 05:36:50;;;;;;;44.17;14.50;;;;;;;;;;5039810;28;20072;-60
2022/02/24 05:39:15;;;;;;;49.83;16.58;;;;;;;;;;5025585;28;20104;-61
2022/02/24 05:41:40;;;;;;;36.13;13.50;;;;;;;;;;5025028;28;20095;-61
2022/02/24 05:44:06;;;;;;;44.58;14.55;;;;;;;;;;5025123;28;20443;-61
2022/02/24 05:46:31;;;;;;;36.03;13.18;;;;;;;;;;5006581;28;20383;-61
2022/02/24 05:48:56;;;;;;;41.90;14.95;;;;;;;;;;4999335;28;20398;-61
2022/02/24 05:51:22;;;;;;;36.55;13.50;;;;;;;;;;5010999;28;20432;-61
2022/02/24 05:53:47;;;;;;;44.40;15.40;;;;;;;;;;5011465;28;20121;-60
2022/02/24 05:56:12;;;;;;;40.78;15.45;;;;;;;;;;5011604;28;20480;-61
2022/02/24 05:58:38;;;;;;;41.55;16.08;;;;;;;;;;5011303;28;20451;-61
2022/02/24 06:01:04;;;;;;;47.92;15.73;;;;;;;;;;5011091;28;20054;-61
2022/02/24 06:03:29;;;;;;;45.70;19.85;;;;;;;;;;5011396;28;20033;-66
2022/02/24 06:05:56;;;;;;;47.78;16.17;;;;;;;;;;5011649;28;20427;-62
2022/02/24 06:08:22;;;;;;;46.13;16.73;;;;;;;;;;5011462;28;20366;-61
2022/02/24 06:10:47;;;;;;;45.80;16.38;;;;;;;;;;5012718;28;20366;-61
2022/02/24 06:13:13;;;;;;;43.35;15.73;;;;;;;;;;5011440;28;20465;-60
2022/02/24 06:15:38;;;;;;;42.22;16.33;;;;;;;;;;5011783;28;20373;-61
2022/02/24 06:18:10;;;;;;;41.95;16.25;;;;;;;;;;5010894;28;20440;-62
2022/02/24 06:20:36;;;;;;;46.17;16.17;;;;;;;;;;5011183;28;20028;-61
2022/02/24 06:23:01;;;;;;;46.88;17.27;;;;;;;;;;5011231;28;20090;-61
2022/02/24 06:25:27;;;;;;;46.85;16.55;;;;;;;;;;5010886;28;20024;-61
2022/02/24 06:27:52;;;;;;;44.08;15.98;;;;;;;;;;5011446;28;20390;-61
2022/02/24 06:30:17;;;;;;;46.72;16.40;;;;;;;;;;5010885;28;20440;-61
2022/02/24 06:32:43;;;;;;;44.40;18.17;;;;;;;;;;5010410;28;20343;-61
2022/02/24 06:35:09;;;;;;;48.95;17.58;;;;;;;;;;5010731;28;20510;-61
2022/02/24 06:37:35;;;;;;;47.75;17.17;;;;;;;;;;5010279;28;20485;-61
2022/02/24 06:40:00;;;;;;;50.95;17.83;;;;;;;;;;5012117;28;20410;-61
2022/02/24 06:42:26;;;;;;;52.78;17.55;;;;;;;;;;5010227;28;20374;-61
2022/02/24 06:44:51;;;;;;;55.70;17.60;;;;;;;;;;5011744;28;20430;-61
2022/02/24 06:47:16;;;;;;;50.78;17.67;;;;;;;;;;5010223;28;20428;-61
2022/02/24 06:49:43;;;;;;;51.33;17.20;;;;;;;;;;5010621;28;20479;-61
2022/02/24 06:52:08;;;;;;;51.75;17.88;;;;;;;;;;5010249;28;20467;-61
2022/02/24 06:54:34;;;;;;;46.10;18.20;;;;;;;;;;5010837;28;20415;-62
2022/02/24 06:57:00;;;;;;;44.58;15.77;;;;;;;;;;5011966;28;20332;-61
2022/02/24 06:59:27;;;;;;;54.10;17.85;;;;;;;;;;5010413;28;20530;-61
2022/02/24 07:01:52;;;;;;;45.28;18.05;;;;;;;;;;5009629;28;21295;-63
2022/02/24 07:04:17;;;;;;;53.38;17.67;;;;;;;;;;5010173;28;20420;-61
2022/02/24 07:06:44;;;;;;;43.42;16.67;;;;;;;;;;5011279;28;20436;-62
2022/02/24 07:09:09;;;;;;;52.28;17.13;;;;;;;;;;5010887;28;20436;-62
2022/02/24 07:11:35;;;;;;;45.78;16.75;;;;;;;;;;5010102;28;20530;-61
2022/02/24 07:14:00;;;;;;;45.42;14.82;;;;;;;;;;5009787;28;20454;-61
2022/02/24 07:16:26;;;;;;;47.72;16.35;;;;;;;;;;5009568;28;20439;-61
2022/02/24 07:18:51;;;;;;;44.15;16.05;;;;;;;;;;5009788;28;20490;-61
2022/02/24 07:21:16;;;;;;;43.28;15.52;;;;;;;;;;5009304;28;20443;-61
2022/02/24 07:23:42;;;;;;;44.78;14.63;;;;;;;;;;5011679;28;20419;-62
2022/02/24 07:26:07;;;;;;;48.05;16.77;;;;;;;;;;5009521;28;20107;-61
2022/02/24 07:28:33;;;;;;;41.67;14.77;;;;;;;;;;5010056;28;20443;-61
2022/02/24 07:30:58;;;;;;;37.50;14.40;;;;;;;;;;5009528;28;20344;-61
2022/02/24 07:33:23;;;;;;;47.45;14.90;;;;;;;;;;5009529;28;20137;-61
2022/02/24 07:35:49;;;;;;;39.55;15.57;;;;;;;;;;5009020;28;20347;-61
2022/02/24 07:38:14;;;;;;;41.42;14.68;;;;;;;;;;5008891;28;20129;-61
2022/02/24 07:40:39;;;;;;;44.03;14.52;;;;;;;;;;5009587;28;20467;-62
2022/02/24 07:43:06;;;;;;;38.42;14.07;;;;;;;;;;5009384;28;20036;-61
2022/02/24 07:45:31;;;;;;;41.88;15.45;;;;;;;;;;5009777;28;20352;-63
2022/02/24 07:47:56;;;;;;;44.20;14.45;;;;;;;;;;5009025;28;20036;-62
2022/02/24 07:50:22;;;;;;;44.13;13.95;;;;;;;;;;5009120;28;20459;-62
2022/02/24 07:52:47;;;;;;;37.80;13.23;;;;;;;;;;5009373;28;20499;-61
2022/02/24 07:55:13;;;;;;;45.17;15.55;;;;;;;;;;5008886;28;20386;-62
2022/02/24 07:57:42;;;;;;;36.72;13.73;;;;;;;;;;5009183;28;20028;-62
2022/02/24 08:00:13;;;;;;;49.53;15.27;;;;;;;;;;5009292;28;20359;-61
2022/02/24 08:02:39;;;;;;;33.92;13.25;;;;;;;;;;5009239;28;20367;-62
2022/02/24 08:05:04;;;;;;;36.90;13.25;;;;;;;;;;5009402;28;20025;-61
2022/02/24 08:07:30;;;;;;;38.80;13.13;;;;;;;;;;5010489;28;20431;-61
2022/02/24 08:09:55;;;;;;;35.60;13.60;;;;;;;;;;5009049;28;20313;-62
2022/02/24 08:12:38;;;;;;;38.75;13.68;;;;;;;;;;5008486;28;20435;-61
2022/02/24 08:15:06;;;;;;;35.67;13.85;;;;;;;;;;5008872;28;20440;-62
2022/02/24 08:17:31;;;;;;;35.75;13.15;;;;;;;;;;5008624;28;20071;-61
2022/02/24 08:19:57;;;;;;;34.17;13.77;;;;;;;;;;5008533;28;20498;-62
2022/02/24 08:22:22;;;;;;;31.98;12.43;;;;;;;;;;5009969;28;20514;-61
2022/02/24 08:24:47;;;;;;;33.95;13.32;;;;;;;;;;5008819;28;20416;-61
2022/02/24 08:27:13;;;;;;;36.22;12.88;;;;;;;;;;5008395;28;20388;-63
2022/02/24 08:29:38;;;;;;;40.38;12.93;;;;;;;;;;5009672;28;20544;-62
2022/02/24 08:32:04;;;;;;;34.42;11.90;;;;;;;;;;5008708;28;20024;-62
2022/02/24 08:34:29;;;;;;;33.40;12.15;;;;;;;;;;4990956;28;20055;-62
2022/02/24 08:36:55;;;;;;;36.38;12.15;;;;;;;;;;5008330;28;20452;-61
2022/02/24 08:39:20;;;;;;;37.00;12.18;;;;;;;;;;5009099;28;20604;-62
2022/02/24 08:41:46;;;;;;;30.10;10.88;;;;;;;;;;5009895;28;20379;-62
2022/02/24 08:44:12;;;;;;;34.20;11.75;;;;;;;;;;5009565;28;20285;-62
2022/02/24 08:46:37;;;;;;;34.63;12.35;;;;;;;;;;5008689;28;20478;-62
2022/02/24 08:49:03;;;;;;;27.05;10.93;;;;;;;;;;5008289;28;20485;-61
2022/02/24 08:51:28;;;;;;;27.88;11.88;;;;;;;;;;5009239;28;20025;-62
2022/02/24 08:53:54;;;;;;;27.98;11.18;;;;;;;;;;5008123;28;20446;-62
2022/02/24 08:56:19;;;;;;;36.30;11.88;;;;;;;;;;5008586;28;20564;-62
2022/02/24 08:58:44;;;;;;;27.48;10.40;;;;;;;;;;5008070;28;20385;-62
2022/02/24 09:01:10;;;;;;;23.38;9.90;;;;;;;;;;5009053;28;20190;-62
2022/02/24 09:03:35;;;;;;;28.40;10.57;;;;;;;;;;5009705;28;20477;-62
2022/02/24 09:06:00;;;;;;;31.50;11.30;;;;;;;;;;5008239;28;20454;-62
2022/02/24 09:08:26;;;;;;;26.80;11.02;;;;;;;;;;5008881;28;20447;-62
2022/02/24 09:10:51;;;;;;;36.42;11.38;;;;;;;;;;5008130;28;20375;-63
2022/02/24 09:13:16;;;;;;;26.80;9.88;;;;;;;;;;5008625;28;20436;-62
2022/02/24 09:15:42;;;;;;;27.45;10.70;;;;;;;;;;5007920;28;20459;-61
2022/02/24 09:18:09;;;;;;;30.40;11.85;;;;;;;;;;5008217;28;20452;-61
2022/02/24 09:20:34;;;;;;;30.65;11.02;;;;;;;;;;5008739;28;20398;-62
2022/02/24 09:23:00;;;;;;;29.35;9.82;;;;;;;;;;5009241;28;20346;-63
2022/02/24 09:25:25;;;;;;;25.15;10.57;;;;;;;;;;5011516;28;20056;-62
2022/02/24 09:27:51;;;;;;;25.52;10.50;;;;;;;;;;5011761;28;20033;-62
2022/02/24 09:30:17;;;;;;;25.95;10.73;;;;;;;;;;5013159;28;20335;-62
2022/02/24 09:32:43;;;;;;;25.00;10.93;;;;;;;;;;5012349;28;20524;-62
2022/02/24 09:35:10;;;;;;;32.10;10.70;;;;;;;;;;5011980;28;20477;-63
2022/02/24 09:37:36;;;;;;;24.25;9.45;;;;;;;;;;5011516;28;20409;-62
2022/02/24 09:40:07;;;;;;;22.25;8.98;;;;;;;;;;5031598;28;20389;-62
2022/02/24 09:42:33;;;;;;;23.88;8.13;;;;;;;;;;5031851;28;20097;-62
2022/02/24 09:44:59;;;;;;;24.67;9.77;;;;;;;;;;5031114;28;20342;-62
2022/02/24 09:47:26;;;;;;;28.70;8.75;;;;;;;;;;5031654;28;20351;-62
2022/02/24 09:49:53;;;;;;;23.42;8.98;;;;;;;;;;5031758;28;20396;-62
2022/02/24 09:52:19;;;;;;;24.48;9.13;;;;;;;;;;5030309;28;20095;-62
2022/02/24 09:54:44;;;;;;;18.60;7.68;;;;;;;;;;5031703;28;20024;-62
2022/02/24 09:57:09;;;;;;;25.75;7.90;;;;;;;;;;5030949;28;20544;-62
2022/02/24 09:59:35;;;;;;;19.23;7.68;;;;;;;;;;5031387;28;20363;-62
2022/02/24 10:02:00;;;;;;;21.13;7.78;;;;;;;;;;5032472;28;20293;-62
2022/02/24 10:04:26;;;;;;;20.38;8.88;;;;;;;;;;5031290;28;20319;-62
2022/02/24 10:06:51;;;;;;;22.67;8.40;;;;;;;;;;5031011;28;20036;-62
2022/02/24 10:09:31;;;;;;;25.33;9.45;;;;;;;;;;5032240;28;20028;-62
2022/02/24 10:12:07;;;;;;;19.95;7.68;;;;;;;;;;5030900;28;20340;-62
2022/02/24 10:14:34;;;;;;;20.05;7.30;;;;;;;;;;5030971;28;20426;-62
2022/02/24 10:17:07;;;;;;;20.02;8.43;;;;;;;;;;5031025;28;20466;-62
2022/02/24 10:19:40;;;;;;;17.50;8.25;;;;;;;;;;5031185;28;20342;-61
2022/02/24 10:22:07;;;;;;;19.55;7.65;;;;;;;;;;5031191;28;20060;-63
2022/02/24 10:24:32;;;;;;;23.42;7.30;;;;;;;;;;5030578;28;20455;-62
2022/02/24 10:27:16;;;;;;;21.50;8.57;;;;;;;;;;5030874;28;20050;-62
2022/02/24 10:30:09;;;;;;;21.67;7.30;;;;;;;;;;5030749;28;20426;-62
2022/02/24 10:32:42;;;;;;;19.60;7.75;;;;;;;;;;5030513;28;20486;-61
2022/02/24 10:35:34;;;;;;;20.05;7.20;;;;;;;;;;5030683;28;20468;-62
2022/02/24 10:38:03;;;;;;;19.92;7.70;;;;;;;;;;5016090;28;20414;-62
2022/02/24 10:40:32;;;;;;;15.00;6.43;;;;;;;;;;5010484;28;20432;-62
2022/02/24 10:43:12;;;;;;;15.85;6.43;;;;;;;;;;5011280;28;20363;-63
2022/02/24 10:45:39;;;;;;;17.17;6.05;;;;;;;;;;5010351;28;20421;-62
2022/02/24 10:48:07;;;;;;;17.75;7.30;;;;;;;;;;5010602;28;20367;-62
2022/02/24 10:50:47;;;;;;;20.80;7.22;;;;;;;;;;5010205;28;20453;-62
2022/02/24 10:53:13;;;;;;;16.58;6.90;;;;;;;;;;5010653;28;20347;-62
2022/02/24 10:55:54;;;;;;;18.35;6.60;;;;;;;;;;5010612;28;20047;-62
2022/02/24 10:58:20;;;;;;;19.02;5.38;;;;;;;;;;5010412;28;20351;-62
2022/02/24 11:00:46;;;;;;;14.18;6.15;;;;;;;;;;5010792;28;20372;-62
2022/02/24 11:03:11;;;;;;;16.08;5.70;;;;;;;;;;5010575;28;20327;-62
2022/02/24 11:05:38;;;;;;;16.80;6.35;;;;;;;;;;5010025;28;20352;-62
2022/02/24 11:08:05;;;;;;;12.38;5.55;;;;;;;;;;4993044;28;20396;-62
2022/02/24 11:10:30;;;;;;;15.70;5.82;;;;;;;;;;5010161;28;20406;-61
2022/02/24 11:12:55;;;;;;;18.65;6.60;;;;;;;;;;5009832;28;20055;-62
2022/02/24 11:15:21;;;;;;;15.73;6.30;;;;;;;;;;5010044;28;20025;-62
2022/02/24 11:17:48;;;;;;;14.70;5.63;;;;;;;;;;5010018;28;20301;-61
2022/02/24 11:20:14;;;;;;;12.02;5.43;;;;;;;;;;5010003;28;20060;-62
2022/02/24 11:22:40;;;;;;;12.50;5.47;;;;;;;;;;5011133;28;20523;-61
2022/02/24 11:25:06;;;;;;;11.80;4.78;;;;;;;;;;5010141;28;20131;-62
2022/02/24 11:27:36;;;;;;;14.95;5.85;;;;;;;;;;4991717;28;20032;-62
2022/02/24 11:30:04;;;;;;;10.95;4.55;;;;;;;;;;5009916;28;20309;-62
2022/02/24 11:32:30;;;;;;;11.07;5.18;;;;;;;;;;5009752;28;20435;-62
2022/02/24 11:35:07;;;;;;;16.33;5.50;;;;;;;;;;4991508;28;20100;-62
2022/02/24 11:37:41;;;;;;;11.02;4.82;;;;;;;;;;5009143;28;20490;-62
2022/02/24 11:40:19;;;;;;;11.65;4.72;;;;;;;;;;5009386;28;20358;-62
2022/02/24 11:43:00;;;;;;;10.02;4.57;;;;;;;;;;5009363;28;20411;-62
2022/02/24 11:45:28;;;;;;;13.27;5.15;;;;;;;;;;5010424;28;20478;-62
2022/02/24 11:47:58;;;;;;;10.70;4.70;;;;;;;;;;5008810;28;20431;-62
2022/02/24 11:50:32;;;;;;;11.13;4.75;;;;;;;;;;5009481;28;20043;-62
2022/02/24 11:52:58;;;;;;;13.55;5.10;;;;;;;;;;5009986;28;20527;-62
2022/02/24 11:55:40;;;;;;;13.93;5.25;;;;;;;;;;5009110;28;20451;-62
2022/02/24 11:58:43;;;;;;;9.80;4.40;;;;;;;;;;5010778;28;20438;-62
2022/02/24 12:01:23;;;;;;;9.35;4.38;;;;;;;;;;5008909;28;20116;-62
2022/02/24 12:03:55;;;;;;;12.35;5.32;;;;;;;;;;5009241;28;20456;-62
2022/02/24 12:06:41;;;;;;;13.82;4.90;;;;;;;;;;5008935;28;20068;-63
2022/02/24 12:09:10;;;;;;;11.20;5.10;;;;;;;;;;4991278;28;20581;-62
2022/02/24 12:11:40;;;;;;;11.90;4.55;;;;;;;;;;4990602;28;20430;-62
2022/02/24 12:14:24;;;;;;;12.88;4.65;;;;;;;;;;5009019;28;20474;-64
2022/02/24 12:17:19;;;;;;;11.63;4.68;;;;;;;;;;5008531;28;20505;-62
2022/02/24 12:19:48;;;;;;;10.85;4.80;;;;;;;;;;4987828;28;20362;-63
2022/02/24 12:22:20;;;;;;;14.75;4.35;;;;;;;;;;5008498;28;20442;-64
2022/02/24 12:24:54;;;;;;;11.27;4.43;;;;;;;;;;4990853;28;20435;-62
2022/02/24 12:27:26;;;;;;;9.63;4.53;;;;;;;;;;5010343;28;20327;-62
2022/02/24 12:30:10;;;;;;;10.40;4.15;;;;;;;;;;5009074;28;20078;-62
2022/02/24 12:32:39;;;;;;;10.65;4.45;;;;;;;;;;5008388;28;20028;-63
2022/02/24 12:35:09;;;;;;;9.07;3.97;;;;;;;;;;5010015;28;20332;-63
2022/02/24 12:37:34;;;;;;;10.82;4.32;;;;;;;;;;5008185;28;20056;-62
2022/02/24 12:40:01;;;;;;;9.40;3.88;;;;;;;;;;5008367;28;20086;-62
2022/02/24 12:42:28;;;;;;;8.90;3.65;;;;;;;;;;5009567;28;20415;-62
2022/02/24 12:44:53;;;;;;;12.75;4.65;;;;;;;;;;5009957;28;20332;-63
2022/02/24 12:47:19;;;;;;;12.23;4.28;;;;;;;;;;5008832;28;20433;-62
2022/02/24 12:49:48;;;;;;;9.32;3.95;;;;;;;;;;4990570;28;20503;-62
2022/02/24 12:52:22;;;;;;;10.93;4.07;;;;;;;;;;5008911;28;20368;-62
2022/02/24 12:54:47;;;;;;;10.68;4.03;;;;;;;;;;5008371;28;20364;-62
2022/02/24 12:57:13;;;;;;;14.90;4.50;;;;;;;;;;5008703;28;20032;-63
2022/02/24 12:59:39;;;;;;;8.77;4.78;;;;;;;;;;5011003;28;20439;-62
2022/02/24 13:02:04;;;;;;;13.73;4.57;;;;;;;;;;5012863;28;20374;-62
2022/02/24 13:04:31;;;;;;;12.75;4.07;;;;;;;;;;5012754;28;20469;-62
2022/02/24 13:06:57;;;;;;;13.07;4.60;;;;;;;;;;4994260;28;20459;-63
2022/02/24 13:12:08;;;;;;;7.40;3.95;;;;;;;;;;5012749;28;20051;-62
2022/02/24 13:14:35;;;;;;;9.43;4.03;;;;;;;;;;5003376;28;20379;-62
2022/02/24 13:17:01;;;;;;;10.75;4.22;;;;;;;;;;4959891;28;20145;-62
2022/02/24 13:19:27;;;;;;;11.13;4.22;;;;;;;;;;4951599;28;20500;-62
2022/02/24 13:22:02;;;;;;;9.50;4.43;;;;;;;;;;4951519;28;20460;-62
2022/02/24 13:24:31;;;;;;;8.68;3.22;;;;;;;;;;4952793;28;20377;-63
2022/02/24 13:26:57;;;;;;;12.60;4.32;;;;;;;;;;4953147;28;20433;-62
2022/02/24 13:29:24;;;;;;;7.80;3.28;;;;;;;;;;4953305;28;20440;-63
2022/02/24 13:31:50;;;;;;;10.55;4.03;;;;;;;;;;4952939;28;20333;-62
2022/02/24 13:34:17;;;;;;;8.60;3.47;;;;;;;;;;4953105;28;20052;-62
2022/02/24 13:36:43;;;;;;;10.43;3.75;;;;;;;;;;4959352;28;20344;-63
2022/02/24 13:39:10;;;;;;;7.82;3.58;;;;;;;;;;4992026;28;20055;-62
2022/02/24 13:41:35;;;;;;;9.57;3.45;;;;;;;;;;4991834;28;20459;-61
2022/02/24 13:44:00;;;;;;;12.57;4.63;;;;;;;;;;4974188;28;20339;-62
2022/02/24 13:46:43;;;;;;;7.75;3.90;;;;;;;;;;4991772;28;20336;-62
2022/02/24 13:49:10;;;;;;;11.55;4.15;;;;;;;;;;4992289;28;20429;-62
2022/02/24 13:51:36;;;;;;;9.25;4.05;;;;;;;;;;4991504;28;20357;-61
2022/02/24 13:54:02;;;;;;;9.32;3.88;;;;;;;;;;4992432;28;20401;-62
2022/02/24 13:56:27;;;;;;;7.57;3.58;;;;;;;;;;4992102;28;20517;-62
2022/02/24 13:58:59;;;;;;;12.32;3.78;;;;;;;;;;4991633;28;20055;-62
2022/02/24 14:01:27;;;;;;;9.27;3.90;;;;;;;;;;4992627;28;20033;-63
2022/02/24 14:03:54;;;;;;;10.43;4.25;;;;;;;;;;4973594;28;20533;-62
2022/02/24 14:06:26;;;;;;;9.23;4.10;;;;;;;;;;4991531;28;20391;-62
2022/02/24 14:08:52;;;;;;;6.35;3.00;;;;;;;;;;4991328;28;20139;-61
2022/02/24 14:11:19;;;;;;;9.68;4.25;;;;;;;;;;4991204;28;20471;-64
2022/02/24 14:13:45;;;;;;;7.07;3.42;;;;;;;;;;4991559;28;20467;-62
2022/02/24 14:16:12;;;;;;;8.82;3.65;;;;;;;;;;4991307;28;20452;-62
2022/02/24 14:18:38;;;;;;;6.53;3.38;;;;;;;;;;4991394;28;20467;-61
2022/02/24 14:21:05;;;;;;;8.38;3.67;;;;;;;;;;4991203;28;20406;-63
2022/02/24 14:23:30;;;;;;;8.05;3.55;;;;;;;;;;4991389;28;20420;-64
2022/02/24 14:25:55;;;;;;;8.80;3.67;;;;;;;;;;4990967;28;20471;-62
2022/02/24 14:28:21;;;;;;;8.15;3.38;;;;;;;;;;4992662;28;20424;-61